sensor_id;sensor_type;location;lat;lon;timestamp;P1;durP1;ratioP1;P2;durP2;ratioP2
5277;SDS011;2662;51.194;6.614;2023-05-07T00:01:24;7.50;;;4.30;;
5277;SDS011;2662;51.194;6.614;2023-05-07T00:03:53;7.60;;;5.30;;
5277;SDS011;2662;51.194;6.614;2023-05-07T00:06:22;6.40;;;5.00;;
5277;SDS011;2662;51.194;6.614;2023-05-07T00:08:51;7.63;;;5.70;;
5277;SDS011;2662;51.194;6.614;2023-05-07T00:11:18;6.30;;;4.60;;
5277;SDS011;2662;51.194;6.614;2023-05-07T00:13:46;7.40;;;4.60;;
5277;SDS011;2662;51.194;6.614;2023-05-07T00:16:15;9.80;;;5.23;;
5277;SDS011;2662;51.194;6.614;2023-05-07T00:18:44;8.53;;;4.30;;
5277;SDS011;2662;51.194;6.614;2023-05-07T00:21:12;5.50;;;4.63;;
5277;SDS011;2662;51.194;6.614;2023-05-07T00:23:41;5.43;;;4.57;;
5277;SDS011;2662;51.194;6.614;2023-05-07T00:26:10;5.60;;;4.60;;
5277;SDS011;2662;51.194;6.614;2023-05-07T00:28:38;7.70;;;4.57;;
5277;SDS011;2662;51.194;6.614;2023-05-07T00:31:07;6.13;;;4.80;;
5277;SDS011;2662;51.194;6.614;2023-05-07T00:33:35;6.77;;;4.30;;
5277;SDS011;2662;51.194;6.614;2023-05-07T00:36:04;6.70;;;4.53;;
5277;SDS011;2662;51.194;6.614;2023-05-07T00:38:33;4.83;;;4.30;;
5277;SDS011;2662;51.194;6.614;2023-05-07T00:41:01;5.33;;;4.73;;
5277;SDS011;2662;51.194;6.614;2023-05-07T00:43:30;6.50;;;4.63;;
5277;SDS011;2662;51.194;6.614;2023-05-07T00:45:58;9.63;;;4.80;;
5277;SDS011;2662;51.194;6.614;2023-05-07T00:48:24;4.73;;;4.20;;
5277;SDS011;2662;51.194;6.614;2023-05-07T00:50:53;5.47;;;4.60;;
5277;SDS011;2662;51.194;6.614;2023-05-07T00:53:25;5.00;;;4.50;;
5277;SDS011;2662;51.194;6.614;2023-05-07T00:55:53;5.03;;;4.13;;
5277;SDS011;2662;51.194;6.614;2023-05-07T00:58:21;8.23;;;4.70;;
5277;SDS011;2662;51.194;6.614;2023-05-07T01:00:50;10.40;;;4.17;;
5277;SDS011;2662;51.194;6.614;2023-05-07T01:03:18;6.87;;;4.30;;
5277;SDS011;2662;51.194;6.614;2023-05-07T01:05:47;5.80;;;4.40;;
5277;SDS011;2662;51.194;6.614;2023-05-07T01:08:18;5.10;;;4.60;;
5277;SDS011;2662;51.194;6.614;2023-05-07T01:10:47;5.17;;;4.40;;
5277;SDS011;2662;51.194;6.614;2023-05-07T01:13:15;5.40;;;4.03;;
5277;SDS011;2662;51.194;6.614;2023-05-07T01:15:43;5.87;;;4.43;;
5277;SDS011;2662;51.194;6.614;2023-05-07T01:18:12;10.00;;;4.00;;
5277;SDS011;2662;51.194;6.614;2023-05-07T01:20:40;5.30;;;4.10;;
5277;SDS011;2662;51.194;6.614;2023-05-07T01:23:10;5.50;;;4.50;;
5277;SDS011;2662;51.194;6.614;2023-05-07T01:25:38;5.10;;;4.27;;
5277;SDS011;2662;51.194;6.614;2023-05-07T01:28:06;12.30;;;4.60;;
5277;SDS011;2662;51.194;6.614;2023-05-07T01:30:34;5.77;;;4.03;;
5277;SDS011;2662;51.194;6.614;2023-05-07T01:33:03;5.07;;;4.27;;
5277;SDS011;2662;51.194;6.614;2023-05-07T01:35:36;5.27;;;4.17;;
5277;SDS011;2662;51.194;6.614;2023-05-07T01:38:06;9.00;;;3.87;;
5277;SDS011;2662;51.194;6.614;2023-05-07T01:40:36;5.13;;;4.17;;
5277;SDS011;2662;51.194;6.614;2023-05-07T01:43:04;7.10;;;4.60;;
5277;SDS011;2662;51.194;6.614;2023-05-07T01:45:32;6.40;;;3.73;;
5277;SDS011;2662;51.194;6.614;2023-05-07T01:48:02;5.17;;;4.30;;
5277;SDS011;2662;51.194;6.614;2023-05-07T01:50:31;7.10;;;4.17;;
5277;SDS011;2662;51.194;6.614;2023-05-07T01:53:01;5.50;;;4.77;;
5277;SDS011;2662;51.194;6.614;2023-05-07T01:55:29;6.50;;;4.93;;
5277;SDS011;2662;51.194;6.614;2023-05-07T01:57:58;6.07;;;4.80;;
5277;SDS011;2662;51.194;6.614;2023-05-07T02:00:26;7.67;;;5.10;;
5277;SDS011;2662;51.194;6.614;2023-05-07T02:02:54;7.80;;;5.40;;
5277;SDS011;2662;51.194;6.614;2023-05-07T02:05:21;4.90;;;4.50;;
5277;SDS011;2662;51.194;6.614;2023-05-07T02:07:50;11.20;;;4.47;;
5277;SDS011;2662;51.194;6.614;2023-05-07T02:10:18;9.07;;;4.87;;
5277;SDS011;2662;51.194;6.614;2023-05-07T02:12:46;9.67;;;5.30;;
5277;SDS011;2662;51.194;6.614;2023-05-07T02:15:15;6.80;;;4.30;;
5277;SDS011;2662;51.194;6.614;2023-05-07T02:17:57;10.27;;;4.20;;
5277;SDS011;2662;51.194;6.614;2023-05-07T02:20:27;7.27;;;4.77;;
5277;SDS011;2662;51.194;6.614;2023-05-07T02:22:54;6.47;;;4.80;;
5277;SDS011;2662;51.194;6.614;2023-05-07T02:25:21;5.87;;;4.90;;
5277;SDS011;2662;51.194;6.614;2023-05-07T02:27:49;4.50;;;4.10;;
5277;SDS011;2662;51.194;6.614;2023-05-07T02:30:18;4.70;;;4.30;;
5277;SDS011;2662;51.194;6.614;2023-05-07T02:32:46;7.30;;;4.27;;
5277;SDS011;2662;51.194;6.614;2023-05-07T02:35:14;11.30;;;4.43;;
5277;SDS011;2662;51.194;6.614;2023-05-07T02:37:41;6.40;;;4.23;;
5277;SDS011;2662;51.194;6.614;2023-05-07T02:40:08;5.03;;;4.40;;
5277;SDS011;2662;51.194;6.614;2023-05-07T02:42:36;6.00;;;4.50;;
5277;SDS011;2662;51.194;6.614;2023-05-07T02:45:04;6.40;;;4.70;;
5277;SDS011;2662;51.194;6.614;2023-05-07T02:47:35;8.73;;;4.57;;
5277;SDS011;2662;51.194;6.614;2023-05-07T02:50:03;5.77;;;4.60;;
5277;SDS011;2662;51.194;6.614;2023-05-07T02:52:30;9.40;;;4.27;;
5277;SDS011;2662;51.194;6.614;2023-05-07T02:54:58;4.47;;;3.90;;
5277;SDS011;2662;51.194;6.614;2023-05-07T02:57:26;6.63;;;4.73;;
5277;SDS011;2662;51.194;6.614;2023-05-07T02:59:54;6.53;;;4.20;;
5277;SDS011;2662;51.194;6.614;2023-05-07T03:02:21;4.67;;;4.23;;
5277;SDS011;2662;51.194;6.614;2023-05-07T03:04:50;4.97;;;4.13;;
5277;SDS011;2662;51.194;6.614;2023-05-07T03:07:17;8.00;;;4.30;;
5277;SDS011;2662;51.194;6.614;2023-05-07T03:09:45;6.87;;;4.00;;
5277;SDS011;2662;51.194;6.614;2023-05-07T03:12:12;5.80;;;4.20;;
5277;SDS011;2662;51.194;6.614;2023-05-07T03:14:40;6.67;;;4.10;;
5277;SDS011;2662;51.194;6.614;2023-05-07T03:17:07;7.63;;;3.90;;
5277;SDS011;2662;51.194;6.614;2023-05-07T03:19:35;11.03;;;4.50;;
5277;SDS011;2662;51.194;6.614;2023-05-07T03:22:03;5.77;;;5.07;;
5277;SDS011;2662;51.194;6.614;2023-05-07T03:24:30;5.07;;;4.57;;
5277;SDS011;2662;51.194;6.614;2023-05-07T03:26:58;5.67;;;4.30;;
5277;SDS011;2662;51.194;6.614;2023-05-07T03:29:26;6.80;;;4.10;;
5277;SDS011;2662;51.194;6.614;2023-05-07T03:31:53;4.83;;;4.33;;
5277;SDS011;2662;51.194;6.614;2023-05-07T03:34:21;6.20;;;3.97;;
5277;SDS011;2662;51.194;6.614;2023-05-07T03:36:50;4.87;;;4.23;;
5277;SDS011;2662;51.194;6.614;2023-05-07T03:39:19;5.07;;;4.40;;
5277;SDS011;2662;51.194;6.614;2023-05-07T03:41:47;5.10;;;4.17;;
5277;SDS011;2662;51.194;6.614;2023-05-07T03:44:14;4.43;;;4.00;;
5277;SDS011;2662;51.194;6.614;2023-05-07T03:46:42;5.23;;;4.03;;
5277;SDS011;2662;51.194;6.614;2023-05-07T03:49:10;7.43;;;4.13;;
5277;SDS011;2662;51.194;6.614;2023-05-07T03:51:38;5.03;;;3.97;;
5277;SDS011;2662;51.194;6.614;2023-05-07T03:54:05;4.90;;;3.83;;
5277;SDS011;2662;51.194;6.614;2023-05-07T03:56:34;4.10;;;3.70;;
5277;SDS011;2662;51.194;6.614;2023-05-07T03:59:02;6.73;;;4.10;;
5277;SDS011;2662;51.194;6.614;2023-05-07T04:01:32;6.50;;;3.90;;
5277;SDS011;2662;51.194;6.614;2023-05-07T04:03:59;3.83;;;3.53;;
5277;SDS011;2662;51.194;6.614;2023-05-07T04:06:28;6.57;;;3.80;;
5277;SDS011;2662;51.194;6.614;2023-05-07T04:08:56;3.87;;;3.47;;
5277;SDS011;2662;51.194;6.614;2023-05-07T04:11:26;3.73;;;3.33;;
5277;SDS011;2662;51.194;6.614;2023-05-07T04:13:56;6.27;;;3.90;;
5277;SDS011;2662;51.194;6.614;2023-05-07T04:16:25;6.17;;;3.47;;
5277;SDS011;2662;51.194;6.614;2023-05-07T04:18:53;4.83;;;3.40;;
5277;SDS011;2662;51.194;6.614;2023-05-07T04:21:22;4.10;;;3.20;;
5277;SDS011;2662;51.194;6.614;2023-05-07T04:23:51;10.40;;;3.57;;
5277;SDS011;2662;51.194;6.614;2023-05-07T04:26:19;6.70;;;3.40;;
5277;SDS011;2662;51.194;6.614;2023-05-07T04:28:48;4.67;;;3.67;;
5277;SDS011;2662;51.194;6.614;2023-05-07T04:31:18;6.40;;;3.87;;
5277;SDS011;2662;51.194;6.614;2023-05-07T04:33:46;4.30;;;3.60;;
5277;SDS011;2662;51.194;6.614;2023-05-07T04:36:14;10.40;;;3.50;;
5277;SDS011;2662;51.194;6.614;2023-05-07T04:38:42;5.20;;;3.83;;
5277;SDS011;2662;51.194;6.614;2023-05-07T04:41:12;7.80;;;3.50;;
5277;SDS011;2662;51.194;6.614;2023-05-07T04:43:41;6.10;;;3.80;;
5277;SDS011;2662;51.194;6.614;2023-05-07T04:46:09;4.00;;;3.43;;
5277;SDS011;2662;51.194;6.614;2023-05-07T04:48:39;4.33;;;3.50;;
5277;SDS011;2662;51.194;6.614;2023-05-07T04:51:08;4.83;;;3.90;;
5277;SDS011;2662;51.194;6.614;2023-05-07T04:53:37;4.60;;;3.30;;
5277;SDS011;2662;51.194;6.614;2023-05-07T04:56:05;3.97;;;3.33;;
5277;SDS011;2662;51.194;6.614;2023-05-07T04:58:33;3.40;;;3.20;;
5277;SDS011;2662;51.194;6.614;2023-05-07T05:01:01;10.33;;;3.60;;
5277;SDS011;2662;51.194;6.614;2023-05-07T05:03:30;5.40;;;3.70;;
5277;SDS011;2662;51.194;6.614;2023-05-07T05:06:00;4.23;;;3.47;;
5277;SDS011;2662;51.194;6.614;2023-05-07T05:08:29;4.20;;;3.80;;
5277;SDS011;2662;51.194;6.614;2023-05-07T05:10:58;5.03;;;3.70;;
5277;SDS011;2662;51.194;6.614;2023-05-07T05:13:27;6.43;;;3.50;;
5277;SDS011;2662;51.194;6.614;2023-05-07T05:15:55;5.77;;;3.60;;
5277;SDS011;2662;51.194;6.614;2023-05-07T05:18:23;7.60;;;3.30;;
5277;SDS011;2662;51.194;6.614;2023-05-07T05:20:51;9.23;;;3.50;;
5277;SDS011;2662;51.194;6.614;2023-05-07T05:23:20;3.87;;;3.03;;
5277;SDS011;2662;51.194;6.614;2023-05-07T05:25:48;3.70;;;3.40;;
5277;SDS011;2662;51.194;6.614;2023-05-07T05:28:15;6.10;;;2.83;;
5277;SDS011;2662;51.194;6.614;2023-05-07T05:30:44;7.30;;;3.27;;
5277;SDS011;2662;51.194;6.614;2023-05-07T05:33:12;4.00;;;3.33;;
5277;SDS011;2662;51.194;6.614;2023-05-07T05:35:41;12.77;;;3.73;;
5277;SDS011;2662;51.194;6.614;2023-05-07T05:38:09;2.80;;;2.60;;
5277;SDS011;2662;51.194;6.614;2023-05-07T05:40:38;4.17;;;3.73;;
5277;SDS011;2662;51.194;6.614;2023-05-07T05:43:06;3.90;;;3.40;;
5277;SDS011;2662;51.194;6.614;2023-05-07T05:45:33;4.37;;;3.40;;
5277;SDS011;2662;51.194;6.614;2023-05-07T05:48:01;7.70;;;3.00;;
5277;SDS011;2662;51.194;6.614;2023-05-07T05:50:29;4.33;;;3.00;;
5277;SDS011;2662;51.194;6.614;2023-05-07T05:52:58;4.03;;;3.40;;
5277;SDS011;2662;51.194;6.614;2023-05-07T05:55:25;3.47;;;3.17;;
5277;SDS011;2662;51.194;6.614;2023-05-07T05:57:55;2.77;;;2.57;;
5277;SDS011;2662;51.194;6.614;2023-05-07T06:00:23;3.60;;;3.10;;
5277;SDS011;2662;51.194;6.614;2023-05-07T06:02:51;4.00;;;3.23;;
5277;SDS011;2662;51.194;6.614;2023-05-07T06:05:19;6.07;;;3.70;;
5277;SDS011;2662;51.194;6.614;2023-05-07T06:07:46;3.60;;;3.30;;
5277;SDS011;2662;51.194;6.614;2023-05-07T06:10:15;6.30;;;3.97;;
5277;SDS011;2662;51.194;6.614;2023-05-07T06:12:43;3.60;;;3.30;;
5277;SDS011;2662;51.194;6.614;2023-05-07T06:15:13;4.10;;;3.57;;
5277;SDS011;2662;51.194;6.614;2023-05-07T06:17:41;6.77;;;4.10;;
5277;SDS011;2662;51.194;6.614;2023-05-07T06:20:09;6.60;;;3.80;;
5277;SDS011;2662;51.194;6.614;2023-05-07T06:22:37;15.60;;;4.17;;
5277;SDS011;2662;51.194;6.614;2023-05-07T06:25:06;5.60;;;4.37;;
5277;SDS011;2662;51.194;6.614;2023-05-07T06:27:35;5.17;;;3.93;;
5277;SDS011;2662;51.194;6.614;2023-05-07T06:30:05;4.20;;;3.67;;
5277;SDS011;2662;51.194;6.614;2023-05-07T06:32:34;7.40;;;4.10;;
5277;SDS011;2662;51.194;6.614;2023-05-07T06:35:03;4.43;;;3.63;;
5277;SDS011;2662;51.194;6.614;2023-05-07T06:37:30;5.43;;;3.93;;
5277;SDS011;2662;51.194;6.614;2023-05-07T06:39:58;3.70;;;2.97;;
5277;SDS011;2662;51.194;6.614;2023-05-07T06:42:26;8.30;;;3.40;;
5277;SDS011;2662;51.194;6.614;2023-05-07T06:44:54;7.93;;;3.33;;
5277;SDS011;2662;51.194;6.614;2023-05-07T06:47:21;3.40;;;3.10;;
5277;SDS011;2662;51.194;6.614;2023-05-07T06:49:50;5.10;;;2.70;;
5277;SDS011;2662;51.194;6.614;2023-05-07T06:52:17;4.13;;;2.70;;
5277;SDS011;2662;51.194;6.614;2023-05-07T06:54:44;4.10;;;2.70;;
5277;SDS011;2662;51.194;6.614;2023-05-07T06:57:13;3.87;;;2.87;;
5277;SDS011;2662;51.194;6.614;2023-05-07T06:59:41;6.33;;;3.20;;
5277;SDS011;2662;51.194;6.614;2023-05-07T07:02:08;3.30;;;3.00;;
5277;SDS011;2662;51.194;6.614;2023-05-07T07:04:37;2.53;;;2.00;;
5277;SDS011;2662;51.194;6.614;2023-05-07T07:07:07;5.50;;;2.20;;
5277;SDS011;2662;51.194;6.614;2023-05-07T07:09:35;5.57;;;1.90;;
5277;SDS011;2662;51.194;6.614;2023-05-07T07:12:03;2.50;;;2.30;;
5277;SDS011;2662;51.194;6.614;2023-05-07T07:14:31;2.60;;;2.27;;
5277;SDS011;2662;51.194;6.614;2023-05-07T07:16:59;2.70;;;2.50;;
5277;SDS011;2662;51.194;6.614;2023-05-07T07:19:26;3.40;;;2.83;;
5277;SDS011;2662;51.194;6.614;2023-05-07T07:21:55;5.50;;;2.27;;
5277;SDS011;2662;51.194;6.614;2023-05-07T07:24:25;2.37;;;1.97;;
5277;SDS011;2662;51.194;6.614;2023-05-07T07:26:52;3.73;;;2.27;;
5277;SDS011;2662;51.194;6.614;2023-05-07T07:29:22;4.00;;;2.00;;
5277;SDS011;2662;51.194;6.614;2023-05-07T07:31:51;1.93;;;1.83;;
5277;SDS011;2662;51.194;6.614;2023-05-07T07:34:19;2.17;;;1.97;;
5277;SDS011;2662;51.194;6.614;2023-05-07T07:36:46;5.20;;;2.20;;
5277;SDS011;2662;51.194;6.614;2023-05-07T07:39:13;5.67;;;2.53;;
5277;SDS011;2662;51.194;6.614;2023-05-07T07:41:44;2.30;;;2.10;;
5277;SDS011;2662;51.194;6.614;2023-05-07T07:44:11;3.23;;;2.40;;
5277;SDS011;2662;51.194;6.614;2023-05-07T07:46:40;2.07;;;1.90;;
5277;SDS011;2662;51.194;6.614;2023-05-07T07:49:07;2.13;;;2.03;;
5277;SDS011;2662;51.194;6.614;2023-05-07T07:51:34;2.23;;;2.07;;
5277;SDS011;2662;51.194;6.614;2023-05-07T07:54:03;2.23;;;2.03;;
5277;SDS011;2662;51.194;6.614;2023-05-07T07:56:31;1.93;;;1.83;;
5277;SDS011;2662;51.194;6.614;2023-05-07T07:59:01;5.13;;;2.00;;
5277;SDS011;2662;51.194;6.614;2023-05-07T08:01:29;2.13;;;1.90;;
5277;SDS011;2662;51.194;6.614;2023-05-07T08:03:58;2.07;;;1.97;;
5277;SDS011;2662;51.194;6.614;2023-05-07T08:06:28;3.80;;;1.97;;
5277;SDS011;2662;51.194;6.614;2023-05-07T08:08:56;2.03;;;1.90;;
5277;SDS011;2662;51.194;6.614;2023-05-07T08:11:25;5.40;;;1.90;;
5277;SDS011;2662;51.194;6.614;2023-05-07T08:13:53;2.10;;;1.90;;
5277;SDS011;2662;51.194;6.614;2023-05-07T08:16:22;2.17;;;1.97;;
5277;SDS011;2662;51.194;6.614;2023-05-07T08:18:50;4.77;;;2.17;;
5277;SDS011;2662;51.194;6.614;2023-05-07T08:21:17;3.40;;;2.07;;
5277;SDS011;2662;51.194;6.614;2023-05-07T08:23:45;1.57;;;1.47;;
5277;SDS011;2662;51.194;6.614;2023-05-07T08:26:14;1.63;;;1.53;;
5277;SDS011;2662;51.194;6.614;2023-05-07T08:28:42;2.83;;;1.70;;
5277;SDS011;2662;51.194;6.614;2023-05-07T08:31:09;1.80;;;1.70;;
5277;SDS011;2662;51.194;6.614;2023-05-07T08:33:39;10.17;;;2.30;;
5277;SDS011;2662;51.194;6.614;2023-05-07T08:36:07;1.43;;;1.23;;
5277;SDS011;2662;51.194;6.614;2023-05-07T08:38:35;1.93;;;1.80;;
5277;SDS011;2662;51.194;6.614;2023-05-07T08:41:02;1.70;;;1.10;;
5277;SDS011;2662;51.194;6.614;2023-05-07T08:43:32;2.53;;;1.80;;
5277;SDS011;2662;51.194;6.614;2023-05-07T08:46:02;2.70;;;2.37;;
5277;SDS011;2662;51.194;6.614;2023-05-07T08:48:31;3.07;;;2.40;;
5277;SDS011;2662;51.194;6.614;2023-05-07T08:51:01;3.00;;;2.40;;
5277;SDS011;2662;51.194;6.614;2023-05-07T08:53:30;5.80;;;2.13;;
5277;SDS011;2662;51.194;6.614;2023-05-07T08:55:58;7.40;;;2.77;;
5277;SDS011;2662;51.194;6.614;2023-05-07T08:58:27;2.23;;;1.90;;
5277;SDS011;2662;51.194;6.614;2023-05-07T09:00:54;2.90;;;2.10;;
5277;SDS011;2662;51.194;6.614;2023-05-07T09:03:23;3.93;;;2.00;;
5277;SDS011;2662;51.194;6.614;2023-05-07T09:05:50;2.50;;;1.83;;
5277;SDS011;2662;51.194;6.614;2023-05-07T09:08:23;2.60;;;2.40;;
5277;SDS011;2662;51.194;6.614;2023-05-07T09:10:51;1.83;;;1.70;;
5277;SDS011;2662;51.194;6.614;2023-05-07T09:13:19;2.67;;;2.03;;
5277;SDS011;2662;51.194;6.614;2023-05-07T09:15:47;3.73;;;1.73;;
5277;SDS011;2662;51.194;6.614;2023-05-07T09:18:16;2.10;;;1.90;;
5277;SDS011;2662;51.194;6.614;2023-05-07T09:20:44;4.57;;;2.40;;
5277;SDS011;2662;51.194;6.614;2023-05-07T09:23:11;2.57;;;2.37;;
5277;SDS011;2662;51.194;6.614;2023-05-07T09:25:40;4.20;;;2.10;;
5277;SDS011;2662;51.194;6.614;2023-05-07T09:28:07;2.60;;;2.40;;
5277;SDS011;2662;51.194;6.614;2023-05-07T09:30:35;4.60;;;2.70;;
5277;SDS011;2662;51.194;6.614;2023-05-07T09:33:03;8.70;;;2.90;;
5277;SDS011;2662;51.194;6.614;2023-05-07T09:35:30;3.00;;;2.70;;
5277;SDS011;2662;51.194;6.614;2023-05-07T09:37:59;6.07;;;3.13;;
5277;SDS011;2662;51.194;6.614;2023-05-07T09:40:28;3.70;;;2.80;;
5277;SDS011;2662;51.194;6.614;2023-05-07T09:43:07;3.90;;;2.10;;
5277;SDS011;2662;51.194;6.614;2023-05-07T09:45:37;2.70;;;1.90;;
5277;SDS011;2662;51.194;6.614;2023-05-07T09:48:05;2.63;;;1.80;;
5277;SDS011;2662;51.194;6.614;2023-05-07T09:50:36;3.83;;;2.10;;
5277;SDS011;2662;51.194;6.614;2023-05-07T09:53:06;4.10;;;1.90;;
5277;SDS011;2662;51.194;6.614;2023-05-07T09:55:38;2.80;;;1.83;;
5277;SDS011;2662;51.194;6.614;2023-05-07T09:58:11;2.50;;;1.70;;
5277;SDS011;2662;51.194;6.614;2023-05-07T10:00:41;2.40;;;1.70;;
5277;SDS011;2662;51.194;6.614;2023-05-07T10:03:13;1.97;;;1.80;;
5277;SDS011;2662;51.194;6.614;2023-05-07T10:05:43;2.50;;;1.63;;
5277;SDS011;2662;51.194;6.614;2023-05-07T10:08:12;1.70;;;1.60;;
5277;SDS011;2662;51.194;6.614;2023-05-07T10:10:41;1.37;;;1.00;;
5277;SDS011;2662;51.194;6.614;2023-05-07T10:13:10;1.70;;;1.60;;
5277;SDS011;2662;51.194;6.614;2023-05-07T10:15:38;1.90;;;1.80;;
5277;SDS011;2662;51.194;6.614;2023-05-07T10:18:05;1.70;;;1.60;;
5277;SDS011;2662;51.194;6.614;2023-05-07T10:20:33;1.70;;;1.47;;
5277;SDS011;2662;51.194;6.614;2023-05-07T10:23:02;5.33;;;1.10;;
5277;SDS011;2662;51.194;6.614;2023-05-07T10:25:31;1.60;;;1.50;;
5277;SDS011;2662;51.194;6.614;2023-05-07T10:27:59;3.23;;;1.53;;
5277;SDS011;2662;51.194;6.614;2023-05-07T10:30:33;1.90;;;1.27;;
5277;SDS011;2662;51.194;6.614;2023-05-07T10:33:13;1.07;;;1.07;;
5277;SDS011;2662;51.194;6.614;2023-05-07T10:35:43;2.13;;;1.20;;
5277;SDS011;2662;51.194;6.614;2023-05-07T10:38:12;1.77;;;1.10;;
5277;SDS011;2662;51.194;6.614;2023-05-07T10:40:39;2.40;;;1.53;;
5277;SDS011;2662;51.194;6.614;2023-05-07T10:43:06;2.10;;;1.10;;
5277;SDS011;2662;51.194;6.614;2023-05-07T10:45:35;1.50;;;1.40;;
5277;SDS011;2662;51.194;6.614;2023-05-07T10:48:08;3.07;;;1.20;;
5277;SDS011;2662;51.194;6.614;2023-05-07T10:50:36;1.37;;;1.20;;
5277;SDS011;2662;51.194;6.614;2023-05-07T10:53:23;1.70;;;1.20;;
5277;SDS011;2662;51.194;6.614;2023-05-07T10:55:51;1.00;;;1.00;;
5277;SDS011;2662;51.194;6.614;2023-05-07T10:58:54;1.47;;;1.40;;
5277;SDS011;2662;51.194;6.614;2023-05-07T11:04:18;1.17;;;1.10;;
5277;SDS011;2662;51.194;6.614;2023-05-07T11:09:59;3.40;;;1.57;;
5277;SDS011;2662;51.194;6.614;2023-05-07T11:12:48;9.63;;;2.20;;
5277;SDS011;2662;51.194;6.614;2023-05-07T11:18:06;3.43;;;1.90;;
5277;SDS011;2662;51.194;6.614;2023-05-07T11:20:49;2.30;;;1.70;;
5277;SDS011;2662;51.194;6.614;2023-05-07T11:26:22;2.57;;;2.10;;
5277;SDS011;2662;51.194;6.614;2023-05-07T11:28:49;2.70;;;2.40;;
5277;SDS011;2662;51.194;6.614;2023-05-07T11:31:22;4.43;;;2.43;;
5277;SDS011;2662;51.194;6.614;2023-05-07T11:33:53;3.43;;;2.17;;
5277;SDS011;2662;51.194;6.614;2023-05-07T11:36:22;3.17;;;1.90;;
5277;SDS011;2662;51.194;6.614;2023-05-07T11:38:51;3.60;;;2.00;;
5277;SDS011;2662;51.194;6.614;2023-05-07T11:41:18;4.00;;;1.97;;
5277;SDS011;2662;51.194;6.614;2023-05-07T11:43:55;2.80;;;2.30;;
5277;SDS011;2662;51.194;6.614;2023-05-07T11:46:23;4.10;;;2.00;;
5277;SDS011;2662;51.194;6.614;2023-05-07T11:48:52;3.57;;;2.00;;
5277;SDS011;2662;51.194;6.614;2023-05-07T11:51:20;2.50;;;2.30;;
5277;SDS011;2662;51.194;6.614;2023-05-07T11:53:51;8.20;;;2.50;;
5277;SDS011;2662;51.194;6.614;2023-05-07T11:56:20;6.30;;;1.77;;
5277;SDS011;2662;51.194;6.614;2023-05-07T11:58:48;2.13;;;2.03;;
5277;SDS011;2662;51.194;6.614;2023-05-07T12:01:17;3.30;;;2.33;;
5277;SDS011;2662;51.194;6.614;2023-05-07T12:03:44;3.90;;;2.60;;
5277;SDS011;2662;51.194;6.614;2023-05-07T12:06:15;3.50;;;2.87;;
5277;SDS011;2662;51.194;6.614;2023-05-07T12:08:43;3.53;;;2.50;;
5277;SDS011;2662;51.194;6.614;2023-05-07T12:11:13;2.50;;;2.23;;
5277;SDS011;2662;51.194;6.614;2023-05-07T12:13:43;2.37;;;2.17;;
5277;SDS011;2662;51.194;6.614;2023-05-07T12:16:11;2.07;;;1.90;;
5277;SDS011;2662;51.194;6.614;2023-05-07T12:18:38;6.27;;;2.40;;
5277;SDS011;2662;51.194;6.614;2023-05-07T12:21:07;4.03;;;1.90;;
5277;SDS011;2662;51.194;6.614;2023-05-07T12:23:37;3.10;;;2.27;;
5277;SDS011;2662;51.194;6.614;2023-05-07T12:26:06;4.30;;;2.10;;
5277;SDS011;2662;51.194;6.614;2023-05-07T12:28:38;5.10;;;2.20;;
5277;SDS011;2662;51.194;6.614;2023-05-07T12:31:06;3.23;;;2.27;;
5277;SDS011;2662;51.194;6.614;2023-05-07T12:33:34;5.30;;;1.80;;
5277;SDS011;2662;51.194;6.614;2023-05-07T12:36:05;2.93;;;1.90;;
5277;SDS011;2662;51.194;6.614;2023-05-07T12:38:38;2.67;;;1.70;;
5277;SDS011;2662;51.194;6.614;2023-05-07T12:41:07;1.83;;;1.67;;
5277;SDS011;2662;51.194;6.614;2023-05-07T12:43:35;2.30;;;2.10;;
5277;SDS011;2662;51.194;6.614;2023-05-07T12:46:03;1.97;;;1.80;;
5277;SDS011;2662;51.194;6.614;2023-05-07T12:48:35;1.83;;;1.73;;
5277;SDS011;2662;51.194;6.614;2023-05-07T12:51:04;1.77;;;1.63;;
5277;SDS011;2662;51.194;6.614;2023-05-07T12:53:39;1.53;;;1.43;;
5277;SDS011;2662;51.194;6.614;2023-05-07T12:56:08;1.77;;;1.40;;
5277;SDS011;2662;51.194;6.614;2023-05-07T12:58:36;1.60;;;1.50;;
5277;SDS011;2662;51.194;6.614;2023-05-07T13:01:04;2.80;;;2.00;;
5277;SDS011;2662;51.194;6.614;2023-05-07T13:03:35;1.70;;;1.60;;
5277;SDS011;2662;51.194;6.614;2023-05-07T13:06:04;3.70;;;1.53;;
5277;SDS011;2662;51.194;6.614;2023-05-07T13:08:35;3.20;;;1.60;;
5277;SDS011;2662;51.194;6.614;2023-05-07T13:11:07;4.00;;;1.80;;
5277;SDS011;2662;51.194;6.614;2023-05-07T13:13:36;1.63;;;1.53;;
5277;SDS011;2662;51.194;6.614;2023-05-07T13:16:05;3.10;;;1.70;;
5277;SDS011;2662;51.194;6.614;2023-05-07T13:18:34;1.70;;;1.57;;
5277;SDS011;2662;51.194;6.614;2023-05-07T13:21:02;3.10;;;1.40;;
5277;SDS011;2662;51.194;6.614;2023-05-07T13:23:29;1.53;;;1.20;;
5277;SDS011;2662;51.194;6.614;2023-05-07T13:25:57;3.67;;;1.50;;
5277;SDS011;2662;51.194;6.614;2023-05-07T13:28:26;2.37;;;1.70;;
5277;SDS011;2662;51.194;6.614;2023-05-07T13:30:55;2.67;;;1.60;;
5277;SDS011;2662;51.194;6.614;2023-05-07T13:33:23;6.73;;;1.40;;
5277;SDS011;2662;51.194;6.614;2023-05-07T13:35:50;2.07;;;1.87;;
5277;SDS011;2662;51.194;6.614;2023-05-07T13:38:17;5.33;;;1.53;;
5277;SDS011;2662;51.194;6.614;2023-05-07T13:40:45;5.90;;;1.43;;
5277;SDS011;2662;51.194;6.614;2023-05-07T13:43:13;4.43;;;1.50;;
5277;SDS011;2662;51.194;6.614;2023-05-07T13:45:44;2.73;;;1.63;;
5277;SDS011;2662;51.194;6.614;2023-05-07T13:48:11;3.90;;;1.93;;
5277;SDS011;2662;51.194;6.614;2023-05-07T13:50:39;3.77;;;1.73;;
5277;SDS011;2662;51.194;6.614;2023-05-07T13:53:08;3.00;;;1.70;;
5277;SDS011;2662;51.194;6.614;2023-05-07T13:55:35;5.67;;;1.50;;
5277;SDS011;2662;51.194;6.614;2023-05-07T13:58:02;1.90;;;1.60;;
5277;SDS011;2662;51.194;6.614;2023-05-07T14:00:30;1.47;;;1.37;;
5277;SDS011;2662;51.194;6.614;2023-05-07T14:02:59;2.50;;;1.30;;
5277;SDS011;2662;51.194;6.614;2023-05-07T14:05:28;2.53;;;1.43;;
5277;SDS011;2662;51.194;6.614;2023-05-07T14:07:55;3.80;;;1.47;;
5277;SDS011;2662;51.194;6.614;2023-05-07T14:10:24;4.50;;;1.60;;
5277;SDS011;2662;51.194;6.614;2023-05-07T14:12:51;1.30;;;1.10;;
5277;SDS011;2662;51.194;6.614;2023-05-07T14:15:19;1.77;;;1.60;;
5277;SDS011;2662;51.194;6.614;2023-05-07T14:17:47;7.10;;;2.33;;
5277;SDS011;2662;51.194;6.614;2023-05-07T14:20:17;4.70;;;2.50;;
5277;SDS011;2662;51.194;6.614;2023-05-07T14:22:45;6.33;;;2.90;;
5277;SDS011;2662;51.194;6.614;2023-05-07T14:25:12;8.00;;;3.90;;
5277;SDS011;2662;51.194;6.614;2023-05-07T14:27:40;5.67;;;3.10;;
5277;SDS011;2662;51.194;6.614;2023-05-07T14:30:08;6.70;;;3.30;;
5277;SDS011;2662;51.194;6.614;2023-05-07T14:32:37;15.40;;;7.53;;
5277;SDS011;2662;51.194;6.614;2023-05-07T14:35:05;10.87;;;4.00;;
5277;SDS011;2662;51.194;6.614;2023-05-07T14:37:35;9.73;;;4.20;;
5277;SDS011;2662;51.194;6.614;2023-05-07T14:40:04;7.87;;;3.80;;
5277;SDS011;2662;51.194;6.614;2023-05-07T14:42:33;15.60;;;4.50;;
5277;SDS011;2662;51.194;6.614;2023-05-07T14:45:04;10.50;;;4.90;;
5277;SDS011;2662;51.194;6.614;2023-05-07T14:47:33;10.00;;;5.47;;
5277;SDS011;2662;51.194;6.614;2023-05-07T14:50:01;15.60;;;5.17;;
5277;SDS011;2662;51.194;6.614;2023-05-07T14:52:29;12.80;;;5.73;;
5277;SDS011;2662;51.194;6.614;2023-05-07T14:54:58;16.33;;;5.97;;
5277;SDS011;2662;51.194;6.614;2023-05-07T14:57:27;10.27;;;5.60;;
5277;SDS011;2662;51.194;6.614;2023-05-07T15:00:00;10.67;;;5.70;;
5277;SDS011;2662;51.194;6.614;2023-05-07T15:02:29;11.70;;;5.87;;
5277;SDS011;2662;51.194;6.614;2023-05-07T15:04:58;17.30;;;5.80;;
5277;SDS011;2662;51.194;6.614;2023-05-07T15:07:26;12.70;;;5.80;;
5277;SDS011;2662;51.194;6.614;2023-05-07T15:09:54;12.27;;;6.00;;
5277;SDS011;2662;51.194;6.614;2023-05-07T15:12:23;8.60;;;5.47;;
5277;SDS011;2662;51.194;6.614;2023-05-07T15:14:50;7.80;;;5.97;;
5277;SDS011;2662;51.194;6.614;2023-05-07T15:17:18;7.53;;;5.63;;
5277;SDS011;2662;51.194;6.614;2023-05-07T15:19:46;5.50;;;4.60;;
5277;SDS011;2662;51.194;6.614;2023-05-07T15:22:13;6.30;;;4.93;;
5277;SDS011;2662;51.194;6.614;2023-05-07T15:24:40;6.50;;;5.20;;
5277;SDS011;2662;51.194;6.614;2023-05-07T15:27:10;8.23;;;5.60;;
5277;SDS011;2662;51.194;6.614;2023-05-07T15:29:39;12.20;;;5.50;;
5277;SDS011;2662;51.194;6.614;2023-05-07T15:32:08;8.47;;;5.47;;
5277;SDS011;2662;51.194;6.614;2023-05-07T15:34:36;7.37;;;5.90;;
5277;SDS011;2662;51.194;6.614;2023-05-07T15:37:04;10.10;;;6.07;;